メインページ
METAR-TAF:

METAR-TAF

空港 :

リシンガ, モザンビーク

緯度: 13-18S, 経度: 035-14E, 海抜: 1364m

現時点の気象観測

当レポートは25分前の17:00(UTC)に作成
南東の風 5kt
気温 19°C
湿度 78%
気圧 1023 hPa
視程10km以上
高度1600ftの雲は散在している

METAR: FQLC 181700Z 14005KT 9999 SCT016 19/15 Q1023

時間: 19:25 (17:25 UTC)

予報

当レポートは7時間25分前の10:00(UTC)に作成
予報は18日の 12時(UTC)から 19日の 12時(UTC)まで有効
南/南東の風 10kt
視程10km以上
高度1400ftの千切れ雲あり
18日の 20時(UTC)から 18日の 22時(UTC)まで徐々に
の風 10kt

TAF: FQLC 181000Z 1812/1912 15010KT 9999 BKN014 TX24/1813Z TN10/1902Z BECMG 1820/1822 09010KT

4,000以上の空港の気象観測と天気予報(METAR報とTAF報)

利用可能な観測所は地図上に黄色い丸と赤い丸で示す。

丸の上にカーソルを重ねると観測所名を参照できる。

次にクリックすると気象観測と天気予報を参照できる。

マップの切り替え:黒色「×」印の緑ボタンをクリックして拡大、「-」印の緑ボタンをクリックして縮小、緑色の三角印をクリックして隣りの地図に切り替え


METAR-TAF: